Time;durP1;ratioP1;P1;durP2;ratioP2;P2;SDS_P1;SDS_P2;PMS_P1;PMS_P2;Temp;Humidity;BMP_temperature;BMP_pressure;BME280_temperature;BME280_humidity;BME280_pressure;Samples;Min_cycle;Max_cycle;Signal;HPM_P1;HPM_P2
2023/05/23 00:02:16;;;;;;;;;;;14.20;99.90;;;;;;5115522;27;19923;-62
2023/05/23 00:04:43;;;;;;;;;;;14.30;99.90;;;;;;5133334;27;19980;-63
2023/05/23 00:07:08;;;;;;;;;;;14.30;99.90;;;;;;5132537;27;20288;-63
2023/05/23 00:09:34;;;;;;;;;;;14.30;99.90;;;;;;5131911;27;19924;-63
2023/05/23 00:11:59;;;;;;;;;;;14.30;99.90;;;;;;5133501;27;19978;-63
2023/05/23 00:14:25;;;;;;;;;;;14.30;99.90;;;;;;5132983;27;20010;-64
2023/05/23 00:16:51;;;;;;;;;;;14.30;99.90;;;;;;5133203;27;19923;-63
2023/05/23 00:19:16;;;;;;;;;;;14.30;99.90;;;;;;5133459;27;19971;-63
2023/05/23 00:21:43;;;;;;;;;;;14.30;99.90;;;;;;5133048;27;19927;-63
2023/05/23 00:24:11;;;;;;;;;;;14.20;99.90;;;;;;5132278;27;19930;-62
2023/05/23 00:26:37;;;;;;;;;;;14.20;99.90;;;;;;5131642;27;19930;-63
2023/05/23 00:29:03;;;;;;;;;;;14.20;99.90;;;;;;5133526;27;20013;-63
2023/05/23 00:31:28;;;;;;;;;;;14.20;99.90;;;;;;5132800;27;20364;-63
2023/05/23 00:33:54;;;;;;;;;;;14.10;99.90;;;;;;5132176;27;20258;-63
2023/05/23 00:36:21;;;;;;;;;;;14.10;99.90;;;;;;5133315;27;19976;-63
2023/05/23 00:38:46;;;;;;;;;;;14.10;99.90;;;;;;5131513;27;20513;-63
2023/05/23 00:41:12;;;;;;;;;;;14.10;99.90;;;;;;5132961;27;20041;-63
2023/05/23 00:43:38;;;;;;;;;;;14.10;99.90;;;;;;5132824;27;20396;-63
2023/05/23 00:46:03;;;;;;;;;;;14.10;99.90;;;;;;5133050;28;19923;-63
2023/05/23 00:48:29;;;;;;;;;;;14.10;99.90;;;;;;5132639;27;19930;-64
2023/05/23 00:50:55;;;;;;;;;;;14.10;99.90;;;;;;5132833;27;19924;-63
2023/05/23 00:53:21;;;;;;;;;;;14.00;99.90;;;;;;5133112;27;19928;-63
2023/05/23 00:55:47;;;;;;;;;;;13.90;99.90;;;;;;5114623;28;19930;-63
2023/05/23 00:58:14;;;;;;;;;;;13.90;99.90;;;;;;5133024;27;19935;-63
2023/05/23 01:00:40;;;;;;;;;;;13.90;99.90;;;;;;5132632;27;19930;-62
2023/05/23 01:03:05;;;;;;;;;;;13.80;99.90;;;;;;5132969;27;19958;-62
2023/05/23 01:05:31;;;;;;;;;;;13.80;99.90;;;;;;5132693;27;19977;-65
2023/05/23 01:07:57;;;;;;;;;;;13.90;99.90;;;;;;5131716;28;19930;-62
2023/05/23 01:10:24;;;;;;;;;;;13.80;99.90;;;;;;5134814;27;19942;-63
2023/05/23 01:12:53;;;;;;;;;;;13.80;99.90;;;;;;5136535;27;19973;-63
2023/05/23 01:15:20;;;;;;;;;;;13.80;99.90;;;;;;5136710;27;19972;-63
2023/05/23 01:17:51;;;;;;;;;;;13.80;99.90;;;;;;5136313;27;20431;-63
2023/05/23 01:20:21;;;;;;;;;;;13.80;99.90;;;;;;5136597;27;20023;-63
2023/05/23 01:22:47;;;;;;;;;;;13.80;99.90;;;;;;5136450;27;19929;-63
2023/05/23 01:25:31;;;;;;;;;;;13.70;99.90;;;;;;5136641;27;19928;-62
2023/05/23 01:28:00;;;;;;;;;;;13.70;99.90;;;;;;5136478;27;19968;-62
2023/05/23 01:30:26;;;;;;;;;;;13.70;99.90;;;;;;5135581;27;19923;-63
2023/05/23 01:32:53;;;;;;;;;;;13.50;99.90;;;;;;5136162;27;20241;-63
2023/05/23 01:35:23;;;;;;;;;;;13.50;99.90;;;;;;5136575;27;19923;-62
2023/05/23 01:37:49;;;;;;;;;;;13.50;99.90;;;;;;5134887;27;19929;-62
2023/05/23 01:40:14;;;;;;;;;;;13.40;99.90;;;;;;5135336;27;20017;-62
2023/05/23 01:42:40;;;;;;;;;;;13.30;99.90;;;;;;5135684;27;20402;-63
2023/05/23 01:45:06;;;;;;;;;;;13.30;99.90;;;;;;5136338;27;20365;-62
2023/05/23 01:47:32;;;;;;;;;;;13.20;99.90;;;;;;5169872;27;19945;-62
2023/05/23 01:49:58;;;;;;;;;;;13.10;99.90;;;;;;5135734;27;19924;-62
2023/05/23 01:52:24;;;;;;;;;;;13.10;99.90;;;;;;5134864;27;19968;-63
2023/05/23 01:54:51;;;;;;;;;;;13.10;99.90;;;;;;5135738;27;19923;-63
2023/05/23 01:57:18;;;;;;;;;;;13.00;99.90;;;;;;5135349;27;20399;-63
2023/05/23 01:59:44;;;;;;;;;;;13.00;99.90;;;;;;5135423;27;20433;-63
2023/05/23 02:02:10;;;;;;;;;;;12.90;99.90;;;;;;5134501;27;19928;-63
2023/05/23 02:04:35;;;;;;;;;;;12.90;99.90;;;;;;5136021;27;19923;-63
2023/05/23 02:07:01;;;;;;;;;;;13.00;99.90;;;;;;5135591;27;19923;-63
2023/05/23 02:09:26;;;;;;;;;;;12.90;99.90;;;;;;5135068;27;19923;-63
2023/05/23 02:11:52;;;;;;;;;;;12.90;99.90;;;;;;5135232;27;19924;-63
2023/05/23 02:14:18;;;;;;;;;;;12.90;99.90;;;;;;5135606;27;20361;-62
2023/05/23 02:16:44;;;;;;;;;;;12.80;99.90;;;;;;5117404;27;19923;-63
2023/05/23 02:19:10;;;;;;;;;;;12.80;99.90;;;;;;5135694;27;19923;-63
2023/05/23 02:21:36;;;;;;;;;;;12.80;99.90;;;;;;5134896;27;19930;-62
2023/05/23 02:24:02;;;;;;;;;;;12.80;99.90;;;;;;5134285;27;19924;-62
2023/05/23 02:26:27;;;;;;;;;;;12.90;99.90;;;;;;5135315;27;20027;-63
2023/05/23 02:28:53;;;;;;;;;;;12.90;99.90;;;;;;5134975;27;19934;-62
2023/05/23 02:31:19;;;;;;;;;;;12.80;99.90;;;;;;5116884;27;19971;-63
2023/05/23 02:33:44;;;;;;;;;;;12.80;99.90;;;;;;5134846;27;19923;-63
2023/05/23 02:36:10;;;;;;;;;;;12.80;99.90;;;;;;5133239;27;19924;-62
2023/05/23 02:38:36;;;;;;;;;;;12.70;99.90;;;;;;5135193;27;19931;-62
2023/05/23 02:41:01;;;;;;;;;;;12.60;99.90;;;;;;5134672;27;20535;-63
2023/05/23 02:43:27;;;;;;;;;;;12.60;99.90;;;;;;5135374;27;20014;-63
2023/05/23 02:45:52;;;;;;;;;;;12.60;99.90;;;;;;5133402;27;19927;-63
2023/05/23 02:48:18;;;;;;;;;;;12.60;99.90;;;;;;5135341;27;20386;-63
2023/05/23 02:50:43;;;;;;;;;;;12.50;99.90;;;;;;5134800;27;19923;-64
2023/05/23 02:53:09;;;;;;;;;;;12.50;99.90;;;;;;5134769;27;19927;-63
2023/05/23 02:55:35;;;;;;;;;;;12.40;99.90;;;;;;5116285;27;19924;-63
2023/05/23 02:58:04;;;;;;;;;;;12.40;99.90;;;;;;5134570;27;19930;-64
2023/05/23 03:00:31;;;;;;;;;;;12.40;99.90;;;;;;5134786;27;19923;-62
2023/05/23 03:02:57;;;;;;;;;;;12.40;99.90;;;;;;5134390;27;19924;-62
2023/05/23 03:05:22;;;;;;;;;;;12.40;99.90;;;;;;5134466;27;19927;-63
2023/05/23 03:07:50;;;;;;;;;;;12.40;99.90;;;;;;5134034;27;20341;-63
2023/05/23 03:10:16;;;;;;;;;;;12.40;99.90;;;;;;5134538;27;19948;-65
2023/05/23 03:12:42;;;;;;;;;;;12.40;99.90;;;;;;5134527;27;19931;-63
2023/05/23 03:15:08;;;;;;;;;;;12.40;99.90;;;;;;5133976;27;19920;-63
2023/05/23 03:17:34;;;;;;;;;;;12.40;99.90;;;;;;5134174;27;20067;-62
2023/05/23 03:19:59;;;;;;;;;;;12.40;99.90;;;;;;5134107;27;19980;-62
2023/05/23 03:22:25;;;;;;;;;;;12.40;99.90;;;;;;5133299;27;19930;-62
2023/05/23 03:24:51;;;;;;;;;;;12.40;99.90;;;;;;5132059;27;19935;-63
2023/05/23 03:27:16;;;;;;;;;;;12.30;99.90;;;;;;5132742;27;20339;-63
2023/05/23 03:29:42;;;;;;;;;;;12.40;99.90;;;;;;5133717;27;19931;-63
2023/05/23 03:32:07;;;;;;;;;;;12.30;99.90;;;;;;5133327;27;19978;-62
2023/05/23 03:34:35;;;;;;;;;;;12.40;99.90;;;;;;5131545;27;19927;-62
2023/05/23 03:37:00;;;;;;;;;;;12.40;99.90;;;;;;5133590;27;20014;-63
2023/05/23 03:39:26;;;;;;;;;;;12.30;99.90;;;;;;5134049;27;19970;-62
2023/05/23 03:41:52;;;;;;;;;;;12.40;99.90;;;;;;5115061;27;19929;-64
2023/05/23 03:44:17;;;;;;;;;;;12.30;99.90;;;;;;5133569;27;19924;-62
2023/05/23 03:46:43;;;;;;;;;;;12.30;99.90;;;;;;5132144;27;20338;-62
2023/05/23 03:49:08;;;;;;;;;;;12.30;99.90;;;;;;5132964;27;20286;-62
2023/05/23 03:51:34;;;;;;;;;;;12.30;99.90;;;;;;5131896;27;19948;-62
2023/05/23 03:53:59;;;;;;;;;;;12.30;99.90;;;;;;5133084;27;19924;-63
2023/05/23 03:56:25;;;;;;;;;;;12.30;99.90;;;;;;5133376;27;19931;-62
2023/05/23 03:58:50;;;;;;;;;;;12.30;99.90;;;;;;5133416;27;19924;-62
2023/05/23 04:01:16;;;;;;;;;;;12.30;99.90;;;;;;5131641;27;19931;-63
2023/05/23 04:03:42;;;;;;;;;;;12.20;99.90;;;;;;5132009;27;20389;-62
2023/05/23 04:06:07;;;;;;;;;;;12.20;99.90;;;;;;5131591;27;19931;-63
2023/05/23 04:08:33;;;;;;;;;;;12.20;99.90;;;;;;5132808;27;20018;-62
2023/05/23 04:11:02;;;;;;;;;;;12.20;99.90;;;;;;5132893;27;19930;-62
2023/05/23 04:13:27;;;;;;;;;;;12.10;99.90;;;;;;5133364;27;20006;-62
2023/05/23 04:15:55;;;;;;;;;;;12.20;99.90;;;;;;5115168;27;19997;-61
2023/05/23 04:18:21;;;;;;;;;;;12.10;99.90;;;;;;5131597;27;20010;-62
2023/05/23 04:20:46;;;;;;;;;;;12.10;99.90;;;;;;5166597;27;20030;-61
2023/05/23 04:23:12;;;;;;;;;;;12.10;99.90;;;;;;5132902;27;19977;-61
2023/05/23 04:25:38;;;;;;;;;;;12.20;99.90;;;;;;5133136;27;19923;-63
2023/05/23 04:28:04;;;;;;;;;;;12.20;99.90;;;;;;5132874;27;19953;-62
2023/05/23 04:30:30;;;;;;;;;;;12.20;99.90;;;;;;5133080;27;20272;-62
2023/05/23 04:32:58;;;;;;;;;;;12.10;99.90;;;;;;5133166;27;19923;-62
2023/05/23 04:35:25;;;;;;;;;;;12.20;99.90;;;;;;5114299;28;19924;-62
2023/05/23 04:37:55;;;;;;;;;;;12.20;99.90;;;;;;5133033;27;19927;-62
2023/05/23 04:40:23;;;;;;;;;;;12.60;99.90;;;;;;5132651;27;19927;-62
2023/05/23 04:42:50;;;;;;;;;;;12.10;99.90;;;;;;5133093;28;19970;-62
2023/05/23 04:45:18;;;;;;;;;;;12.20;99.90;;;;;;5132311;27;19931;-63
2023/05/23 04:47:44;;;;;;;;;;;12.20;99.90;;;;;;5132789;27;19924;-63
2023/05/23 04:50:10;;;;;;;;;;;12.10;99.90;;;;;;5132575;27;19924;-62
2023/05/23 04:52:35;;;;;;;;;;;12.00;99.90;;;;;;5133033;27;20049;-62
2023/05/23 04:55:01;;;;;;;;;;;12.00;99.90;;;;;;5132483;27;19924;-64
2023/05/23 04:57:27;;;;;;;;;;;12.00;99.90;;;;;;5132709;27;19923;-62
2023/05/23 04:59:52;;;;;;;;;;;12.00;99.90;;;;;;5132346;28;19934;-63
2023/05/23 05:02:18;;;;;;;;;;;12.00;99.90;;;;;;5132354;27;19949;-63
2023/05/23 05:04:44;;;;;;;;;;;11.90;99.90;;;;;;5131745;28;19989;-62
2023/05/23 05:07:10;;;;;;;;;;;11.90;99.90;;;;;;5132287;27;20339;-63
2023/05/23 05:09:35;;;;;;;;;;;11.90;99.90;;;;;;5132776;28;19985;-62
2023/05/23 05:12:01;;;;;;;;;;;11.80;99.90;;;;;;5132533;27;19924;-63
2023/05/23 05:14:27;;;;;;;;;;;11.80;99.90;;;;;;5132511;28;19923;-63
2023/05/23 05:16:56;;;;;;;;;;;11.70;99.90;;;;;;5131438;28;19927;-63
2023/05/23 05:19:24;;;;;;;;;;;11.60;99.90;;;;;;5132293;27;19927;-63
2023/05/23 05:21:51;;;;;;;;;;;11.60;99.90;;;;;;5131178;28;19946;-63
2023/05/23 05:24:19;;;;;;;;;;;11.60;99.90;;;;;;5132239;27;19923;-64
2023/05/23 05:26:45;;;;;;;;;;;11.60;99.90;;;;;;5131586;28;19924;-63
2023/05/23 05:29:12;;;;;;;;;;;11.60;99.90;;;;;;5132269;27;19930;-63
2023/05/23 05:31:37;;;;;;;;;;;11.60;99.90;;;;;;5131239;28;20460;-63
2023/05/23 05:34:03;;;;;;;;;;;11.50;99.90;;;;;;5132470;27;20021;-63
2023/05/23 05:36:28;;;;;;;;;;;11.50;99.90;;;;;;5165304;27;20372;-63
2023/05/23 05:38:54;;;;;;;;;;;11.50;99.90;;;;;;5131746;28;20015;-63
2023/05/23 05:41:21;;;;;;;;;;;11.50;99.90;;;;;;5113686;28;19923;-63
2023/05/23 05:43:46;;;;;;;;;;;11.50;99.90;;;;;;5131648;28;19930;-63
2023/05/23 05:46:12;;;;;;;;;;;11.50;99.90;;;;;;5132078;27;20119;-64
2023/05/23 05:48:37;;;;;;;;;;;11.50;99.90;;;;;;5131230;28;20314;-63
2023/05/23 05:51:03;;;;;;;;;;;11.50;99.90;;;;;;5130736;28;19928;-63
2023/05/23 05:53:29;;;;;;;;;;;11.50;99.90;;;;;;5130647;28;19939;-62
2023/05/23 05:55:54;;;;;;;;;;;11.50;99.90;;;;;;5132096;27;19999;-63
2023/05/23 05:58:20;;;;;;;;;;;11.50;99.90;;;;;;5134186;27;19928;-62
2023/05/23 06:00:47;;;;;;;;;;;11.50;99.90;;;;;;5135683;27;19976;-62
2023/05/23 06:03:14;;;;;;;;;;;11.60;99.90;;;;;;5135531;27;19927;-62
2023/05/23 06:05:40;;;;;;;;;;;11.50;99.90;;;;;;5134769;27;19995;-63
2023/05/23 06:08:06;;;;;;;;;;;11.50;99.90;;;;;;5134932;27;20022;-63
2023/05/23 06:10:31;;;;;;;;;;;11.50;99.90;;;;;;5135302;27;19927;-63
2023/05/23 06:12:57;;;;;;;;;;;11.50;99.90;;;;;;5134357;27;19930;-63
2023/05/23 06:15:23;;;;;;;;;;;11.50;99.90;;;;;;5134098;27;20319;-63
2023/05/23 06:17:50;;;;;;;;;;;11.50;99.90;;;;;;5134142;27;19956;-63
2023/05/23 06:20:15;;;;;;;;;;;11.60;99.90;;;;;;5134034;27;20474;-63
2023/05/23 06:22:41;;;;;;;;;;;11.60;99.90;;;;;;5134182;27;19930;-63
2023/05/23 06:25:07;;;;;;;;;;;11.60;99.90;;;;;;5134525;27;20018;-63
2023/05/23 06:27:32;;;;;;;;;;;11.60;99.90;;;;;;5135072;27;20479;-64
2023/05/23 06:29:58;;;;;;;;;;;11.50;99.90;;;;;;5135485;27;19931;-64
2023/05/23 06:32:23;;;;;;;;;;;11.50;99.90;;;;;;5134303;27;19924;-64
2023/05/23 06:34:49;;;;;;;;;;;11.50;99.90;;;;;;5134971;27;19988;-63
2023/05/23 06:37:15;;;;;;;;;;;11.50;99.90;;;;;;5134731;27;19931;-64
2023/05/23 06:39:40;;;;;;;;;;;11.50;99.90;;;;;;5134739;27;20459;-63
2023/05/23 06:42:06;;;;;;;;;;;11.60;99.90;;;;;;5116957;27;19971;-63
2023/05/23 06:44:32;;;;;;;;;;;11.60;99.90;;;;;;5134635;27;19923;-63
2023/05/23 06:46:57;;;;;;;;;;;11.70;99.90;;;;;;5168649;27;20384;-63
2023/05/23 06:49:23;;;;;;;;;;;11.80;99.90;;;;;;5134688;27;19988;-63
2023/05/23 06:51:49;;;;;;;;;;;12.00;99.90;;;;;;5133922;27;19924;-63
2023/05/23 06:54:15;;;;;;;;;;;12.00;99.90;;;;;;5134964;27;19923;-65
2023/05/23 06:56:41;;;;;;;;;;;12.00;99.90;;;;;;5134592;27;19930;-63
2023/05/23 06:59:06;;;;;;;;;;;12.00;99.90;;;;;;5132963;27;20389;-64
2023/05/23 07:01:32;;;;;;;;;;;12.10;99.90;;;;;;5134803;27;19938;-64
2023/05/23 07:03:57;;;;;;;;;;;12.20;99.90;;;;;;5134617;27;19923;-63
2023/05/23 07:06:23;;;;;;;;;;;12.20;99.90;;;;;;5134187;27;19923;-64
2023/05/23 07:08:48;;;;;;;;;;;12.20;99.90;;;;;;5134038;27;20017;-64
2023/05/23 07:11:14;;;;;;;;;;;12.20;99.90;;;;;;5133523;27;19923;-63
2023/05/23 07:13:40;;;;;;;;;;;12.10;99.90;;;;;;5133844;27;19995;-63
2023/05/23 07:16:05;;;;;;;;;;;12.10;99.90;;;;;;5133095;27;19966;-63
2023/05/23 07:18:31;;;;;;;;;;;12.10;99.90;;;;;;5115832;27;19923;-63
2023/05/23 07:20:56;;;;;;;;;;;12.00;99.90;;;;;;5134529;27;19931;-63
2023/05/23 07:23:23;;;;;;;;;;;12.10;99.90;;;;;;5134070;27;19985;-63
2023/05/23 07:25:48;;;;;;;;;;;12.10;99.90;;;;;;5134216;27;19968;-62
2023/05/23 07:28:14;;;;;;;;;;;12.00;99.90;;;;;;5133175;27;19928;-62
2023/05/23 07:30:40;;;;;;;;;;;12.00;99.90;;;;;;5132724;27;19919;-62
2023/05/23 07:33:06;;;;;;;;;;;12.00;99.90;;;;;;5133996;27;19924;-62
2023/05/23 07:35:31;;;;;;;;;;;12.00;99.90;;;;;;5133705;27;19923;-62
2023/05/23 07:37:57;;;;;;;;;;;12.00;99.90;;;;;;5134069;27;20060;-62
2023/05/23 07:40:23;;;;;;;;;;;12.00;99.90;;;;;;5133531;27;20388;-63
2023/05/23 07:42:48;;;;;;;;;;;12.10;99.90;;;;;;5134063;27;19924;-62
2023/05/23 07:45:14;;;;;;;;;;;12.10;99.90;;;;;;5132158;27;19930;-62
2023/05/23 07:47:40;;;;;;;;;;;12.20;99.90;;;;;;5133152;27;20010;-62
2023/05/23 07:50:06;;;;;;;;;;;12.20;99.90;;;;;;5134196;27;20012;-61
2023/05/23 07:52:31;;;;;;;;;;;12.20;99.90;;;;;;5133047;27;20098;-62
2023/05/23 07:54:57;;;;;;;;;;;12.30;99.90;;;;;;5133828;27;19924;-61
2023/05/23 07:57:23;;;;;;;;;;;12.40;99.90;;;;;;5133622;27;19942;-63
2023/05/23 07:59:50;;;;;;;;;;;12.50;99.90;;;;;;5133635;27;19927;-62
2023/05/23 08:02:16;;;;;;;;;;;12.70;99.90;;;;;;5129808;27;19924;-61
2023/05/23 08:04:41;;;;;;;;;;;12.90;99.90;;;;;;5130810;27;19924;-61
2023/05/23 08:07:08;;;;;;;;;;;12.90;99.90;;;;;;5131654;27;20443;-61
2023/05/23 08:09:34;;;;;;;;;;;12.90;99.90;;;;;;5130892;27;20002;-65
2023/05/23 08:12:00;;;;;;;;;;;13.10;99.90;;;;;;5132473;27;19923;-62
2023/05/23 08:14:26;;;;;;;;;;;13.40;99.90;;;;;;5132924;27;20423;-63
2023/05/23 08:16:51;;;;;;;;;;;13.60;99.90;;;;;;5131258;27;19924;-62
2023/05/23 08:19:17;;;;;;;;;;;13.80;99.90;;;;;;5131331;27;19931;-63
2023/05/23 08:21:43;;;;;;;;;;;14.00;99.90;;;;;;5131463;27;19927;-63
2023/05/23 08:24:08;;;;;;;;;;;14.10;99.90;;;;;;5115070;28;19931;-63
2023/05/23 08:26:35;;;;;;;;;;;14.20;99.90;;;;;;5131748;27;19930;-63
2023/05/23 08:29:01;;;;;;;;;;;14.30;99.90;;;;;;5133278;27;19931;-63
2023/05/23 08:31:27;;;;;;;;;;;14.40;99.90;;;;;;5132686;27;20281;-63
2023/05/23 08:33:52;;;;;;;;;;;14.30;99.90;;;;;;5132577;27;19934;-63
2023/05/23 08:36:18;;;;;;;;;;;14.30;99.90;;;;;;5132895;27;20014;-64
2023/05/23 08:38:44;;;;;;;;;;;14.60;99.90;;;;;;5131889;27;19930;-64
2023/05/23 08:41:15;;;;;;;;;;;14.60;99.90;;;;;;5133474;27;20320;-63
2023/05/23 08:43:40;;;;;;;;;;;14.40;99.90;;;;;;5132941;27;19924;-64
2023/05/23 08:46:06;;;;;;;;;;;14.20;99.90;;;;;;5132825;28;19923;-63
2023/05/23 08:48:33;;;;;;;;;;;14.00;99.90;;;;;;5132511;28;20377;-64
2023/05/23 08:51:00;;;;;;;;;;;14.00;99.90;;;;;;5132479;27;19930;-64
2023/05/23 08:53:26;;;;;;;;;;;14.00;99.90;;;;;;5132788;27;19924;-64
2023/05/23 08:55:53;;;;;;;;;;;14.30;99.90;;;;;;5131498;28;20500;-63
2023/05/23 08:58:19;;;;;;;;;;;14.60;99.90;;;;;;5132646;27;19923;-64
2023/05/23 09:00:46;;;;;;;;;;;14.70;99.90;;;;;;5132529;27;19953;-64
2023/05/23 09:03:12;;;;;;;;;;;14.50;99.90;;;;;;5132554;27;19923;-63
2023/05/23 09:05:38;;;;;;;;;;;14.30;99.90;;;;;;5131478;28;19979;-63
2023/05/23 09:08:04;;;;;;;;;;;14.10;99.90;;;;;;5132654;27;19970;-63
2023/05/23 09:10:30;;;;;;;;;;;14.00;99.90;;;;;;5131719;28;19923;-64
2023/05/23 09:12:57;;;;;;;;;;;14.00;99.90;;;;;;5132083;28;19923;-63
2023/05/23 09:15:22;;;;;;;;;;;13.90;99.90;;;;;;5132703;27;19972;-63
2023/05/23 09:17:48;;;;;;;;;;;13.90;99.90;;;;;;5112348;28;19924;-63
2023/05/23 09:20:15;;;;;;;;;;;14.00;99.90;;;;;;5114782;28;19923;-63
2023/05/23 09:22:44;;;;;;;;;;;14.20;99.90;;;;;;5131169;28;20430;-63
2023/05/23 09:25:10;;;;;;;;;;;14.20;99.90;;;;;;5132671;27;19923;-63
2023/05/23 09:27:35;;;;;;;;;;;14.50;99.90;;;;;;5132272;28;19931;-66
2023/05/23 09:30:05;;;;;;;;;;;14.70;99.90;;;;;;5132232;27;19947;-64
2023/05/23 09:32:31;;;;;;;;;;;15.00;99.90;;;;;;5169769;27;19923;-65
2023/05/23 09:35:02;;;;;;;;;;;15.20;99.90;;;;;;5135778;27;20054;-64
2023/05/23 09:37:36;;;;;;;;;;;15.70;99.90;;;;;;5136522;27;19924;-64
2023/05/23 09:40:09;;;;;;;;;;;16.10;99.90;;;;;;5136060;27;19947;-64
2023/05/23 09:42:40;;;;;;;;;;;16.00;99.90;;;;;;5136376;27;19976;-64
2023/05/23 09:45:06;;;;;;;;;;;15.90;99.90;;;;;;5136263;27;19930;-64
2023/05/23 09:47:31;;;;;;;;;;;15.80;99.90;;;;;;5134803;27;19924;-63
2023/05/23 09:49:57;;;;;;;;;;;15.80;99.90;;;;;;5134833;27;19919;-64
2023/05/23 09:52:22;;;;;;;;;;;15.90;99.90;;;;;;5134699;27;19928;-63
2023/05/23 09:54:48;;;;;;;;;;;15.80;99.90;;;;;;5135413;27;19959;-63
2023/05/23 09:57:15;;;;;;;;;;;15.60;99.90;;;;;;5135015;27;19934;-63
2023/05/23 09:59:41;;;;;;;;;;;15.60;99.90;;;;;;5135482;27;20322;-63
2023/05/23 10:02:10;;;;;;;;;;;15.40;99.90;;;;;;5135736;27;19924;-63
2023/05/23 10:04:35;;;;;;;;;;;15.10;99.90;;;;;;5135917;27;20285;-63
2023/05/23 10:07:09;;;;;;;;;;;15.10;99.90;;;;;;5135437;27;19923;-63
2023/05/23 10:09:36;;;;;;;;;;;14.90;99.90;;;;;;5135955;27;20288;-63
2023/05/23 10:12:02;;;;;;;;;;;14.90;99.90;;;;;;5133952;27;19974;-63
2023/05/23 10:14:28;;;;;;;;;;;14.90;99.90;;;;;;5134423;27;19924;-63
2023/05/23 10:16:58;;;;;;;;;;;15.00;99.90;;;;;;5135248;27;19930;-63
2023/05/23 10:19:34;;;;;;;;;;;15.00;99.90;;;;;;5135766;27;19981;-63
2023/05/23 10:22:02;;;;;;;;;;;15.10;99.90;;;;;;5134282;27;20470;-63
2023/05/23 10:24:28;;;;;;;;;;;15.20;99.90;;;;;;5135509;27;19923;-63
2023/05/23 10:26:54;;;;;;;;;;;15.20;99.90;;;;;;5134977;27;19947;-62
2023/05/23 10:29:21;;;;;;;;;;;15.00;99.90;;;;;;5135554;27;19969;-64
2023/05/23 10:31:47;;;;;;;;;;;14.90;99.90;;;;;;5135177;27;19943;-64
2023/05/23 10:34:16;;;;;;;;;;;14.80;99.90;;;;;;5134319;27;19934;-63
2023/05/23 10:37:01;;;;;;;;;;;14.80;99.90;;;;;;5116367;27;20004;-65
2023/05/23 10:39:29;;;;;;;;;;;14.80;99.90;;;;;;5135335;27;19924;-63
2023/05/23 10:41:57;;;;;;;;;;;14.90;99.90;;;;;;5134295;27;20037;-63
2023/05/23 10:44:29;;;;;;;;;;;15.20;99.90;;;;;;5133960;27;19927;-63
2023/05/23 10:46:57;;;;;;;;;;;15.10;99.90;;;;;;5133840;27;19931;-62
2023/05/23 10:49:41;;;;;;;;;;;15.20;99.90;;;;;;5135064;27;19950;-62
2023/05/23 10:52:07;;;;;;;;;;;15.30;99.90;;;;;;5133393;27;19923;-62
2023/05/23 10:54:33;;;;;;;;;;;15.40;99.90;;;;;;5134977;27;19928;-62
2023/05/23 10:57:06;;;;;;;;;;;15.60;99.90;;;;;;5134465;27;20433;-62
2023/05/23 10:59:32;;;;;;;;;;;15.60;99.90;;;;;;5133972;27;19924;-62
2023/05/23 11:01:59;;;;;;;;;;;15.40;99.90;;;;;;5134471;27;19923;-62
2023/05/23 11:04:26;;;;;;;;;;;15.40;99.90;;;;;;5134252;27;19976;-62
2023/05/23 11:06:55;;;;;;;;;;;15.40;99.90;;;;;;5133194;27;19967;-62
2023/05/23 11:09:21;;;;;;;;;;;15.30;99.90;;;;;;5133826;27;20014;-62
2023/05/23 11:11:53;;;;;;;;;;;15.30;99.90;;;;;;5134610;27;20014;-63
2023/05/23 11:14:20;;;;;;;;;;;15.40;99.90;;;;;;5134936;27;20269;-62
2023/05/23 11:16:47;;;;;;;;;;;15.50;99.90;;;;;;5134698;27;20034;-62
2023/05/23 11:19:19;;;;;;;;;;;15.60;99.90;;;;;;5134499;27;19923;-62
2023/05/23 11:21:45;;;;;;;;;;;15.70;99.90;;;;;;5133524;27;20023;-62
2023/05/23 11:24:11;;;;;;;;;;;15.50;99.90;;;;;;5133637;27;19992;-62
2023/05/23 11:26:36;;;;;;;;;;;15.20;99.90;;;;;;5134188;27;19923;-61
2023/05/23 11:29:07;;;;;;;;;;;15.10;99.90;;;;;;5133841;27;19928;-62
2023/05/23 11:31:36;;;;;;;;;;;15.10;99.90;;;;;;5134302;27;19927;-61
2023/05/23 11:34:02;;;;;;;;;;;15.30;99.90;;;;;;5133692;27;19943;-62
2023/05/23 11:36:27;;;;;;;;;;;15.40;99.90;;;;;;5133991;27;19923;-62
2023/05/23 11:38:54;;;;;;;;;;;15.40;99.90;;;;;;5133870;27;20499;-63
2023/05/23 11:41:20;;;;;;;;;;;15.50;99.90;;;;;;5133995;27;19930;-63
2023/05/23 11:43:52;;;;;;;;;;;15.50;99.90;;;;;;5132102;27;20440;-63
2023/05/23 11:46:18;;;;;;;;;;;15.60;99.90;;;;;;5133298;27;20281;-63
2023/05/23 11:48:47;;;;;;;;;;;15.70;99.90;;;;;;5133633;27;19923;-63
2023/05/23 11:51:14;;;;;;;;;;;15.80;99.90;;;;;;5133518;27;19927;-63
2023/05/23 11:53:41;;;;;;;;;;;15.80;99.90;;;;;;5132926;27;20403;-64
2023/05/23 11:56:07;;;;;;;;;;;15.80;99.90;;;;;;5132275;27;19930;-63
2023/05/23 11:58:38;;;;;;;;;;;15.90;99.90;;;;;;5133795;27;19941;-64
2023/05/23 12:01:07;;;;;;;;;;;15.90;99.90;;;;;;5133417;27;20292;-63
2023/05/23 12:03:33;;;;;;;;;;;15.90;99.90;;;;;;5132559;27;19950;-63
2023/05/23 12:06:00;;;;;;;;;;;15.90;99.90;;;;;;5132076;27;19923;-63
2023/05/23 12:08:26;;;;;;;;;;;15.90;99.90;;;;;;5133660;27;20018;-63
2023/05/23 12:11:01;;;;;;;;;;;15.90;99.90;;;;;;5133119;27;20010;-63
2023/05/23 12:13:28;;;;;;;;;;;15.80;99.90;;;;;;5133520;27;19930;-63
2023/05/23 12:15:57;;;;;;;;;;;15.70;99.90;;;;;;5133311;27;19924;-64
2023/05/23 12:18:26;;;;;;;;;;;15.50;99.90;;;;;;5132563;27;20366;-63
2023/05/23 12:20:52;;;;;;;;;;;15.60;99.90;;;;;;5133487;27;20360;-63
2023/05/23 12:23:21;;;;;;;;;;;15.60;99.90;;;;;;5132880;27;20018;-63
2023/05/23 12:25:52;;;;;;;;;;;15.50;99.90;;;;;;5149424;27;19923;-63
2023/05/23 12:28:19;;;;;;;;;;;15.40;99.90;;;;;;5166639;27;19945;-65
2023/05/23 12:30:44;;;;;;;;;;;15.40;99.90;;;;;;5166569;27;19923;-63
2023/05/23 12:33:13;;;;;;;;;;;15.40;99.90;;;;;;5132932;27;19996;-63
2023/05/23 12:35:43;;;;;;;;;;;15.40;99.90;;;;;;5133080;27;19927;-63
2023/05/23 12:38:13;;;;;;;;;;;15.30;99.90;;;;;;5133055;27;19923;-64
2023/05/23 12:40:39;;;;;;;;;;;15.30;99.90;;;;;;5133472;27;20332;-65
2023/05/23 12:43:08;;;;;;;;;;;15.20;99.90;;;;;;5132800;27;20025;-64
2023/05/23 12:45:38;;;;;;;;;;;15.20;99.90;;;;;;5133265;27;19975;-64
2023/05/23 12:48:04;;;;;;;;;;;15.20;99.90;;;;;;5133034;27;20030;-64
2023/05/23 12:50:30;;;;;;;;;;;15.10;99.90;;;;;;5114627;28;20308;-64
2023/05/23 12:52:56;;;;;;;;;;;15.10;99.90;;;;;;5131830;28;19924;-64
2023/05/23 12:55:21;;;;;;;;;;;15.20;99.90;;;;;;5132862;27;19929;-62
2023/05/23 12:57:47;;;;;;;;;;;15.20;99.90;;;;;;5133011;27;19959;-62
2023/05/23 13:00:13;;;;;;;;;;;15.40;99.90;;;;;;5132925;27;19935;-63
2023/05/23 13:02:38;;;;;;;;;;;15.30;99.90;;;;;;5114739;28;20022;-63
2023/05/23 13:05:04;;;;;;;;;;;15.30;99.90;;;;;;5132987;27;20018;-63
2023/05/23 13:07:30;;;;;;;;;;;15.20;99.90;;;;;;5137215;27;19946;-63
2023/05/23 13:09:56;;;;;;;;;;;15.10;99.90;;;;;;5137159;27;19923;-64
2023/05/23 13:12:22;;;;;;;;;;;15.10;99.90;;;;;;5136768;27;19930;-63
2023/05/23 13:14:48;;;;;;;;;;;15.20;99.90;;;;;;5135857;27;19923;-63
2023/05/23 13:17:14;;;;;;;;;;;15.20;99.90;;;;;;5135817;27;19923;-63
2023/05/23 13:19:40;;;;;;;;;;;15.10;99.90;;;;;;5118827;27;19923;-64
2023/05/23 13:22:09;;;;;;;;;;;15.10;99.90;;;;;;5136598;27;20383;-64
2023/05/23 13:24:38;;;;;;;;;;;15.00;99.90;;;;;;5137002;27;19976;-63
2023/05/23 13:27:04;;;;;;;;;;;14.90;99.90;;;;;;5136621;27;20014;-63
2023/05/23 13:29:30;;;;;;;;;;;14.80;99.90;;;;;;5135710;27;20018;-64
2023/05/23 13:31:55;;;;;;;;;;;14.90;99.90;;;;;;5136655;27;20064;-65
2023/05/23 13:34:21;;;;;;;;;;;14.90;99.90;;;;;;5135489;27;20296;-62
2023/05/23 13:36:47;;;;;;;;;;;14.80;99.90;;;;;;5135618;27;19924;-64
2023/05/23 13:39:13;;;;;;;;;;;14.80;99.90;;;;;;5135365;27;20050;-64
2023/05/23 13:41:38;;;;;;;;;;;14.90;99.90;;;;;;5136782;27;20302;-64
2023/05/23 13:44:04;;;;;;;;;;;15.00;99.90;;;;;;5136387;27;19927;-65
2023/05/23 13:46:30;;;;;;;;;;;15.00;99.90;;;;;;5136667;27;19923;-63
2023/05/23 13:48:55;;;;;;;;;;;15.10;99.90;;;;;;5136642;27;20432;-63
2023/05/23 13:51:21;;;;;;;;;;;15.10;99.90;;;;;;5135283;27;19978;-63
2023/05/23 13:53:47;;;;;;;;;;;15.10;99.90;;;;;;5135192;27;19952;-64
2023/05/23 13:56:13;;;;;;;;;;;15.10;99.90;;;;;;5135600;27;19980;-64
2023/05/23 13:58:39;;;;;;;;;;;15.10;99.90;;;;;;5136222;27;20396;-64
2023/05/23 14:01:05;;;;;;;;;;;15.10;99.90;;;;;;5136309;27;19923;-63
2023/05/23 14:03:30;;;;;;;;;;;15.10;99.90;;;;;;5136040;27;19923;-63
2023/05/23 14:05:56;;;;;;;;;;;15.10;99.90;;;;;;5135019;27;19930;-63
2023/05/23 14:08:22;;;;;;;;;;;15.00;99.90;;;;;;5135188;27;19923;-63
2023/05/23 14:10:47;;;;;;;;;;;15.00;99.90;;;;;;5135827;27;20237;-63
2023/05/23 14:13:13;;;;;;;;;;;14.80;99.90;;;;;;5134715;27;19931;-64